sensor_id;sensor_type;location;lat;lon;timestamp;temperature;humidity
24144;DHT22;12307;50.828;6.080;2022-12-07T00:01:30;18.90;55.60
24144;DHT22;12307;50.828;6.080;2022-12-07T00:03:57;18.90;55.50
24144;DHT22;12307;50.828;6.080;2022-12-07T00:06:29;18.90;55.50
24144;DHT22;12307;50.828;6.080;2022-12-07T00:08:55;18.90;55.50
24144;DHT22;12307;50.828;6.080;2022-12-07T00:11:22;18.90;55.50
24144;DHT22;12307;50.828;6.080;2022-12-07T00:13:52;18.90;55.60
24144;DHT22;12307;50.828;6.080;2022-12-07T00:16:20;18.90;55.50
24144;DHT22;12307;50.828;6.080;2022-12-07T00:18:47;18.90;55.50
24144;DHT22;12307;50.828;6.080;2022-12-07T00:21:14;18.90;55.50
24144;DHT22;12307;50.828;6.080;2022-12-07T00:23:42;19.00;55.50
24144;DHT22;12307;50.828;6.080;2022-12-07T00:26:10;18.90;55.50
24144;DHT22;12307;50.828;6.080;2022-12-07T00:28:36;18.90;55.50
24144;DHT22;12307;50.828;6.080;2022-12-07T00:31:04;18.90;55.50
24144;DHT22;12307;50.828;6.080;2022-12-07T00:33:32;18.90;55.50
24144;DHT22;12307;50.828;6.080;2022-12-07T00:35:58;19.00;55.50
24144;DHT22;12307;50.828;6.080;2022-12-07T00:38:27;18.90;55.60
24144;DHT22;12307;50.828;6.080;2022-12-07T00:40:57;18.90;55.50
24144;DHT22;12307;50.828;6.080;2022-12-07T00:43:23;18.90;55.50
24144;DHT22;12307;50.828;6.080;2022-12-07T00:45:49;18.90;55.50
24144;DHT22;12307;50.828;6.080;2022-12-07T00:48:14;18.90;55.50
24144;DHT22;12307;50.828;6.080;2022-12-07T00:50:41;18.90;55.50
24144;DHT22;12307;50.828;6.080;2022-12-07T00:53:07;18.90;55.50
24144;DHT22;12307;50.828;6.080;2022-12-07T00:55:33;18.90;55.50
24144;DHT22;12307;50.828;6.080;2022-12-07T00:57:58;18.90;55.50
24144;DHT22;12307;50.828;6.080;2022-12-07T01:00:24;18.90;55.50
24144;DHT22;12307;50.828;6.080;2022-12-07T01:02:50;18.90;55.50
24144;DHT22;12307;50.828;6.080;2022-12-07T01:05:16;18.90;55.50
24144;DHT22;12307;50.828;6.080;2022-12-07T01:07:43;18.90;55.50
24144;DHT22;12307;50.828;6.080;2022-12-07T01:10:09;18.90;55.50
24144;DHT22;12307;50.828;6.080;2022-12-07T01:12:35;18.90;55.50
24144;DHT22;12307;50.828;6.080;2022-12-07T01:15:00;18.90;55.50
24144;DHT22;12307;50.828;6.080;2022-12-07T01:17:26;18.90;55.50
24144;DHT22;12307;50.828;6.080;2022-12-07T01:19:53;18.90;55.50
24144;DHT22;12307;50.828;6.080;2022-12-07T01:22:19;19.00;55.50
24144;DHT22;12307;50.828;6.080;2022-12-07T01:24:46;18.90;55.50
24144;DHT22;12307;50.828;6.080;2022-12-07T01:27:12;18.90;55.50
24144;DHT22;12307;50.828;6.080;2022-12-07T01:29:38;18.90;55.50
24144;DHT22;12307;50.828;6.080;2022-12-07T01:32:03;18.90;55.50
24144;DHT22;12307;50.828;6.080;2022-12-07T01:34:29;18.90;55.50
24144;DHT22;12307;50.828;6.080;2022-12-07T01:36:55;18.90;55.50
24144;DHT22;12307;50.828;6.080;2022-12-07T01:39:20;18.90;55.50
24144;DHT22;12307;50.828;6.080;2022-12-07T01:41:48;18.90;55.50
24144;DHT22;12307;50.828;6.080;2022-12-07T01:44:20;18.90;55.50
24144;DHT22;12307;50.828;6.080;2022-12-07T01:46:47;18.90;55.50
24144;DHT22;12307;50.828;6.080;2022-12-07T01:49:17;18.90;55.50
24144;DHT22;12307;50.828;6.080;2022-12-07T01:51:45;18.90;55.50
24144;DHT22;12307;50.828;6.080;2022-12-07T01:54:12;18.90;55.50
24144;DHT22;12307;50.828;6.080;2022-12-07T01:56:40;18.90;55.50
24144;DHT22;12307;50.828;6.080;2022-12-07T01:59:09;18.90;55.50
24144;DHT22;12307;50.828;6.080;2022-12-07T02:01:35;18.90;55.50
24144;DHT22;12307;50.828;6.080;2022-12-07T02:04:01;18.90;55.50
24144;DHT22;12307;50.828;6.080;2022-12-07T02:06:27;18.90;55.50
24144;DHT22;12307;50.828;6.080;2022-12-07T02:08:53;18.90;55.50
24144;DHT22;12307;50.828;6.080;2022-12-07T02:11:19;18.90;55.50
24144;DHT22;12307;50.828;6.080;2022-12-07T02:13:46;18.90;55.50
24144;DHT22;12307;50.828;6.080;2022-12-07T02:16:21;18.90;55.50
24144;DHT22;12307;50.828;6.080;2022-12-07T02:18:57;18.90;55.50
24144;DHT22;12307;50.828;6.080;2022-12-07T02:21:33;18.90;55.50
24144;DHT22;12307;50.828;6.080;2022-12-07T02:24:40;18.90;55.50
24144;DHT22;12307;50.828;6.080;2022-12-07T02:27:34;18.90;55.50
24144;DHT22;12307;50.828;6.080;2022-12-07T02:30:06;18.90;55.50
24144;DHT22;12307;50.828;6.080;2022-12-07T02:32:43;19.00;55.50
24144;DHT22;12307;50.828;6.080;2022-12-07T02:35:17;18.90;55.50
24144;DHT22;12307;50.828;6.080;2022-12-07T02:37:51;18.90;55.40
24144;DHT22;12307;50.828;6.080;2022-12-07T02:40:22;18.90;55.50
24144;DHT22;12307;50.828;6.080;2022-12-07T02:42:52;18.90;55.50
24144;DHT22;12307;50.828;6.080;2022-12-07T02:45:22;18.90;55.50
24144;DHT22;12307;50.828;6.080;2022-12-07T02:47:51;18.90;55.50
24144;DHT22;12307;50.828;6.080;2022-12-07T02:50:21;18.90;55.50
24144;DHT22;12307;50.828;6.080;2022-12-07T02:52:46;18.90;55.50
24144;DHT22;12307;50.828;6.080;2022-12-07T02:55:13;18.90;55.50
24144;DHT22;12307;50.828;6.080;2022-12-07T02:57:49;18.90;55.50
24144;DHT22;12307;50.828;6.080;2022-12-07T03:00:19;18.90;55.50
24144;DHT22;12307;50.828;6.080;2022-12-07T03:02:53;18.90;55.50
24144;DHT22;12307;50.828;6.080;2022-12-07T03:05:31;18.90;55.50
24144;DHT22;12307;50.828;6.080;2022-12-07T03:08:02;18.90;55.50
24144;DHT22;12307;50.828;6.080;2022-12-07T03:10:36;18.90;55.50
24144;DHT22;12307;50.828;6.080;2022-12-07T03:13:10;18.90;55.50
24144;DHT22;12307;50.828;6.080;2022-12-07T03:15:43;18.90;55.50
24144;DHT22;12307;50.828;6.080;2022-12-07T03:18:16;18.90;55.50
24144;DHT22;12307;50.828;6.080;2022-12-07T03:20:44;18.90;55.50
24144;DHT22;12307;50.828;6.080;2022-12-07T03:23:12;18.90;55.50
24144;DHT22;12307;50.828;6.080;2022-12-07T03:25:41;18.90;55.50
24144;DHT22;12307;50.828;6.080;2022-12-07T03:28:08;18.90;55.50
24144;DHT22;12307;50.828;6.080;2022-12-07T03:30:39;18.90;55.50
24144;DHT22;12307;50.828;6.080;2022-12-07T03:33:09;18.90;55.50
24144;DHT22;12307;50.828;6.080;2022-12-07T03:35:40;18.90;55.50
24144;DHT22;12307;50.828;6.080;2022-12-07T03:38:14;18.90;55.50
24144;DHT22;12307;50.828;6.080;2022-12-07T03:40:44;18.90;55.50
24144;DHT22;12307;50.828;6.080;2022-12-07T03:43:12;18.90;55.50
24144;DHT22;12307;50.828;6.080;2022-12-07T03:45:40;18.90;55.50
24144;DHT22;12307;50.828;6.080;2022-12-07T03:48:09;18.90;55.50
24144;DHT22;12307;50.828;6.080;2022-12-07T03:50:48;18.90;55.40
24144;DHT22;12307;50.828;6.080;2022-12-07T03:53:18;18.90;55.40
24144;DHT22;12307;50.828;6.080;2022-12-07T03:55:47;18.90;55.50
24144;DHT22;12307;50.828;6.080;2022-12-07T03:58:19;18.90;55.40
24144;DHT22;12307;50.828;6.080;2022-12-07T04:00:47;18.90;55.40
24144;DHT22;12307;50.828;6.080;2022-12-07T04:03:13;18.90;55.40
24144;DHT22;12307;50.828;6.080;2022-12-07T04:05:39;18.90;55.50
24144;DHT22;12307;50.828;6.080;2022-12-07T04:08:07;18.90;55.50
24144;DHT22;12307;50.828;6.080;2022-12-07T04:10:32;18.90;55.50
24144;DHT22;12307;50.828;6.080;2022-12-07T04:12:58;18.90;55.50
24144;DHT22;12307;50.828;6.080;2022-12-07T04:15:24;18.90;55.40
24144;DHT22;12307;50.828;6.080;2022-12-07T04:17:50;18.90;55.50
24144;DHT22;12307;50.828;6.080;2022-12-07T04:20:16;18.90;55.40
24144;DHT22;12307;50.828;6.080;2022-12-07T04:22:42;18.90;55.40
24144;DHT22;12307;50.828;6.080;2022-12-07T04:25:09;18.90;55.40
24144;DHT22;12307;50.828;6.080;2022-12-07T04:27:35;18.90;55.50
24144;DHT22;12307;50.828;6.080;2022-12-07T04:30:00;18.90;55.50
24144;DHT22;12307;50.828;6.080;2022-12-07T04:32:26;18.90;55.40
24144;DHT22;12307;50.828;6.080;2022-12-07T04:34:52;18.90;55.40
24144;DHT22;12307;50.828;6.080;2022-12-07T04:37:17;18.90;55.40
24144;DHT22;12307;50.828;6.080;2022-12-07T04:39:43;18.90;55.40
24144;DHT22;12307;50.828;6.080;2022-12-07T04:42:11;18.90;55.40
24144;DHT22;12307;50.828;6.080;2022-12-07T04:44:38;18.90;55.40
24144;DHT22;12307;50.828;6.080;2022-12-07T04:47:04;18.90;55.40
24144;DHT22;12307;50.828;6.080;2022-12-07T04:49:29;18.90;55.40
24144;DHT22;12307;50.828;6.080;2022-12-07T04:51:55;18.90;55.40
24144;DHT22;12307;50.828;6.080;2022-12-07T04:54:21;18.90;55.40
24144;DHT22;12307;50.828;6.080;2022-12-07T04:56:47;18.90;55.40
24144;DHT22;12307;50.828;6.080;2022-12-07T04:59:15;18.90;55.40
24144;DHT22;12307;50.828;6.080;2022-12-07T05:01:41;18.90;55.40
24144;DHT22;12307;50.828;6.080;2022-12-07T05:04:07;18.90;55.40
24144;DHT22;12307;50.828;6.080;2022-12-07T05:06:33;18.90;55.40
24144;DHT22;12307;50.828;6.080;2022-12-07T05:08:59;18.90;55.40
24144;DHT22;12307;50.828;6.080;2022-12-07T05:11:24;19.00;55.40
24144;DHT22;12307;50.828;6.080;2022-12-07T05:14:08;18.90;55.40
24144;DHT22;12307;50.828;6.080;2022-12-07T05:16:36;18.90;55.40
24144;DHT22;12307;50.828;6.080;2022-12-07T05:19:02;18.90;55.30
24144;DHT22;12307;50.828;6.080;2022-12-07T05:21:28;18.90;55.40
24144;DHT22;12307;50.828;6.080;2022-12-07T05:23:54;18.90;55.40
24144;DHT22;12307;50.828;6.080;2022-12-07T05:26:19;18.90;55.40
24144;DHT22;12307;50.828;6.080;2022-12-07T05:28:49;18.90;55.40
24144;DHT22;12307;50.828;6.080;2022-12-07T05:31:14;18.90;55.40
24144;DHT22;12307;50.828;6.080;2022-12-07T05:33:41;18.90;55.40
24144;DHT22;12307;50.828;6.080;2022-12-07T05:36:07;18.90;55.40
24144;DHT22;12307;50.828;6.080;2022-12-07T05:38:33;18.90;55.40
24144;DHT22;12307;50.828;6.080;2022-12-07T05:41:00;18.90;55.40
24144;DHT22;12307;50.828;6.080;2022-12-07T05:43:27;18.90;55.40
24144;DHT22;12307;50.828;6.080;2022-12-07T05:45:52;18.90;55.50
24144;DHT22;12307;50.828;6.080;2022-12-07T05:48:18;18.90;56.00
24144;DHT22;12307;50.828;6.080;2022-12-07T05:50:47;18.90;55.40
24144;DHT22;12307;50.828;6.080;2022-12-07T05:53:13;18.90;55.30
24144;DHT22;12307;50.828;6.080;2022-12-07T05:55:39;18.90;55.30
24144;DHT22;12307;50.828;6.080;2022-12-07T05:58:04;18.90;55.30
24144;DHT22;12307;50.828;6.080;2022-12-07T06:00:49;18.90;55.30
24144;DHT22;12307;50.828;6.080;2022-12-07T06:03:15;18.90;55.30
24144;DHT22;12307;50.828;6.080;2022-12-07T06:05:40;18.90;55.40
24144;DHT22;12307;50.828;6.080;2022-12-07T06:08:08;18.90;55.30
24144;DHT22;12307;50.828;6.080;2022-12-07T06:10:33;18.90;55.40
24144;DHT22;12307;50.828;6.080;2022-12-07T06:12:59;18.90;55.40
24144;DHT22;12307;50.828;6.080;2022-12-07T06:15:25;18.90;55.40
24144;DHT22;12307;50.828;6.080;2022-12-07T06:17:50;18.90;55.30
24144;DHT22;12307;50.828;6.080;2022-12-07T06:20:16;18.90;55.40
24144;DHT22;12307;50.828;6.080;2022-12-07T06:22:42;18.90;55.30
24144;DHT22;12307;50.828;6.080;2022-12-07T06:25:09;18.90;55.30
24144;DHT22;12307;50.828;6.080;2022-12-07T06:27:35;18.90;55.30
24144;DHT22;12307;50.828;6.080;2022-12-07T06:30:01;18.90;55.30
24144;DHT22;12307;50.828;6.080;2022-12-07T06:32:31;18.90;55.40
24144;DHT22;12307;50.828;6.080;2022-12-07T06:34:57;18.90;55.30
24144;DHT22;12307;50.828;6.080;2022-12-07T06:37:23;18.90;55.30
24144;DHT22;12307;50.828;6.080;2022-12-07T06:39:48;18.90;55.50
24144;DHT22;12307;50.828;6.080;2022-12-07T06:42:15;18.90;55.50
24144;DHT22;12307;50.828;6.080;2022-12-07T06:44:41;18.90;55.40
24144;DHT22;12307;50.828;6.080;2022-12-07T06:47:06;18.90;55.40
24144;DHT22;12307;50.828;6.080;2022-12-07T06:49:33;18.90;55.30
24144;DHT22;12307;50.828;6.080;2022-12-07T06:51:59;18.90;55.30
24144;DHT22;12307;50.828;6.080;2022-12-07T06:54:24;18.90;55.30
24144;DHT22;12307;50.828;6.080;2022-12-07T06:56:50;18.90;55.30
24144;DHT22;12307;50.828;6.080;2022-12-07T06:59:17;18.90;55.30
24144;DHT22;12307;50.828;6.080;2022-12-07T07:01:43;18.90;55.30
24144;DHT22;12307;50.828;6.080;2022-12-07T07:04:09;18.90;55.30
24144;DHT22;12307;50.828;6.080;2022-12-07T07:06:34;18.90;55.30
24144;DHT22;12307;50.828;6.080;2022-12-07T07:09:00;18.90;55.30
24144;DHT22;12307;50.828;6.080;2022-12-07T07:11:26;18.90;55.30
24144;DHT22;12307;50.828;6.080;2022-12-07T07:13:51;18.90;55.30
24144;DHT22;12307;50.828;6.080;2022-12-07T07:16:18;18.90;55.30
24144;DHT22;12307;50.828;6.080;2022-12-07T07:18:44;18.90;55.30
24144;DHT22;12307;50.828;6.080;2022-12-07T07:21:10;18.90;55.30
24144;DHT22;12307;50.828;6.080;2022-12-07T07:23:35;18.90;55.20
24144;DHT22;12307;50.828;6.080;2022-12-07T07:26:01;18.90;55.30
24144;DHT22;12307;50.828;6.080;2022-12-07T07:28:27;18.90;55.80
24144;DHT22;12307;50.828;6.080;2022-12-07T07:30:52;18.90;55.40
24144;DHT22;12307;50.828;6.080;2022-12-07T07:33:19;18.90;55.40
24144;DHT22;12307;50.828;6.080;2022-12-07T07:35:45;19.00;55.50
24144;DHT22;12307;50.828;6.080;2022-12-07T07:38:11;18.90;55.40
24144;DHT22;12307;50.828;6.080;2022-12-07T07:40:36;18.90;55.30
24144;DHT22;12307;50.828;6.080;2022-12-07T07:43:02;18.90;55.30
24144;DHT22;12307;50.828;6.080;2022-12-07T07:45:28;18.90;55.40
24144;DHT22;12307;50.828;6.080;2022-12-07T07:47:53;18.90;55.40
24144;DHT22;12307;50.828;6.080;2022-12-07T07:50:21;18.90;55.30
24144;DHT22;12307;50.828;6.080;2022-12-07T07:52:47;18.90;55.30
24144;DHT22;12307;50.828;6.080;2022-12-07T07:55:13;18.90;55.30
24144;DHT22;12307;50.828;6.080;2022-12-07T07:57:40;18.90;55.40
24144;DHT22;12307;50.828;6.080;2022-12-07T08:00:08;18.90;55.50
24144;DHT22;12307;50.828;6.080;2022-12-07T08:02:35;18.90;55.50
24144;DHT22;12307;50.828;6.080;2022-12-07T08:05:00;19.00;55.50
24144;DHT22;12307;50.828;6.080;2022-12-07T08:07:28;18.90;55.40
24144;DHT22;12307;50.828;6.080;2022-12-07T08:09:54;19.00;55.40
24144;DHT22;12307;50.828;6.080;2022-12-07T08:12:19;19.00;55.50
24144;DHT22;12307;50.828;6.080;2022-12-07T08:14:45;19.00;55.50
24144;DHT22;12307;50.828;6.080;2022-12-07T08:17:14;19.00;55.50
24144;DHT22;12307;50.828;6.080;2022-12-07T08:19:40;19.00;55.50
24144;DHT22;12307;50.828;6.080;2022-12-07T08:22:05;19.00;55.50
24144;DHT22;12307;50.828;6.080;2022-12-07T08:24:34;19.00;55.70
24144;DHT22;12307;50.828;6.080;2022-12-07T08:27:00;19.10;55.70
24144;DHT22;12307;50.828;6.080;2022-12-07T08:29:26;19.10;55.70
24144;DHT22;12307;50.828;6.080;2022-12-07T08:31:51;19.10;55.70
24144;DHT22;12307;50.828;6.080;2022-12-07T08:34:17;19.10;55.60
24144;DHT22;12307;50.828;6.080;2022-12-07T08:36:43;19.10;55.60
24144;DHT22;12307;50.828;6.080;2022-12-07T08:39:08;19.20;55.90
24144;DHT22;12307;50.828;6.080;2022-12-07T08:41:36;19.20;55.90
24144;DHT22;12307;50.828;6.080;2022-12-07T08:44:01;19.20;55.90
24144;DHT22;12307;50.828;6.080;2022-12-07T08:46:31;19.20;56.00
24144;DHT22;12307;50.828;6.080;2022-12-07T08:49:02;19.20;56.10
24144;DHT22;12307;50.828;6.080;2022-12-07T08:51:28;19.30;56.20
24144;DHT22;12307;50.828;6.080;2022-12-07T08:53:55;19.30;56.40
24144;DHT22;12307;50.828;6.080;2022-12-07T08:56:21;19.30;56.50
24144;DHT22;12307;50.828;6.080;2022-12-07T08:58:49;19.40;56.70
24144;DHT22;12307;50.828;6.080;2022-12-07T09:01:14;19.40;56.70
24144;DHT22;12307;50.828;6.080;2022-12-07T09:03:40;19.40;56.60
24144;DHT22;12307;50.828;6.080;2022-12-07T09:06:06;19.40;56.70
24144;DHT22;12307;50.828;6.080;2022-12-07T09:08:34;19.50;56.70
24144;DHT22;12307;50.828;6.080;2022-12-07T09:11:01;19.50;56.80
24144;DHT22;12307;50.828;6.080;2022-12-07T09:13:27;19.50;56.80
24144;DHT22;12307;50.828;6.080;2022-12-07T09:15:54;19.50;56.80
24144;DHT22;12307;50.828;6.080;2022-12-07T09:18:20;19.50;56.90
24144;DHT22;12307;50.828;6.080;2022-12-07T09:20:45;19.60;56.90
24144;DHT22;12307;50.828;6.080;2022-12-07T09:23:11;19.60;56.90
24144;DHT22;12307;50.828;6.080;2022-12-07T09:25:37;19.60;56.90
24144;DHT22;12307;50.828;6.080;2022-12-07T09:28:02;19.70;56.90
24144;DHT22;12307;50.828;6.080;2022-12-07T09:30:28;19.70;56.90
24144;DHT22;12307;50.828;6.080;2022-12-07T09:32:56;19.70;56.90
24144;DHT22;12307;50.828;6.080;2022-12-07T09:35:23;19.70;56.80
24144;DHT22;12307;50.828;6.080;2022-12-07T09:37:49;19.70;56.90
24144;DHT22;12307;50.828;6.080;2022-12-07T09:40:15;19.70;57.00
24144;DHT22;12307;50.828;6.080;2022-12-07T09:42:43;19.70;57.00
24144;DHT22;12307;50.828;6.080;2022-12-07T09:45:14;19.80;57.00
24144;DHT22;12307;50.828;6.080;2022-12-07T09:47:40;19.80;57.00
24144;DHT22;12307;50.828;6.080;2022-12-07T09:50:12;19.80;57.00
24144;DHT22;12307;50.828;6.080;2022-12-07T09:52:40;19.80;57.00
24144;DHT22;12307;50.828;6.080;2022-12-07T09:55:11;19.80;57.10
24144;DHT22;12307;50.828;6.080;2022-12-07T09:57:37;19.80;57.10
24144;DHT22;12307;50.828;6.080;2022-12-07T10:00:09;19.80;57.20
24144;DHT22;12307;50.828;6.080;2022-12-07T10:02:38;19.80;57.20
24144;DHT22;12307;50.828;6.080;2022-12-07T10:05:10;19.90;57.30
24144;DHT22;12307;50.828;6.080;2022-12-07T10:07:37;19.90;57.30
24144;DHT22;12307;50.828;6.080;2022-12-07T10:10:04;19.90;57.30
24144;DHT22;12307;50.828;6.080;2022-12-07T10:12:30;19.90;57.30
24144;DHT22;12307;50.828;6.080;2022-12-07T10:15:10;19.90;57.40
24144;DHT22;12307;50.828;6.080;2022-12-07T10:17:37;19.90;57.40
24144;DHT22;12307;50.828;6.080;2022-12-07T10:20:16;19.90;57.40
24144;DHT22;12307;50.828;6.080;2022-12-07T10:22:58;19.90;57.30
24144;DHT22;12307;50.828;6.080;2022-12-07T10:25:28;20.00;57.40
24144;DHT22;12307;50.828;6.080;2022-12-07T10:27:58;20.00;57.40
24144;DHT22;12307;50.828;6.080;2022-12-07T10:30:24;20.00;57.40
24144;DHT22;12307;50.828;6.080;2022-12-07T10:32:50;20.00;57.30
24144;DHT22;12307;50.828;6.080;2022-12-07T10:35:22;20.00;57.40
24144;DHT22;12307;50.828;6.080;2022-12-07T10:37:49;20.00;57.40
24144;DHT22;12307;50.828;6.080;2022-12-07T10:40:36;20.00;57.30
24144;DHT22;12307;50.828;6.080;2022-12-07T10:43:14;20.00;57.30
24144;DHT22;12307;50.828;6.080;2022-12-07T10:46:07;20.00;57.30
24144;DHT22;12307;50.828;6.080;2022-12-07T10:48:41;19.90;57.20
24144;DHT22;12307;50.828;6.080;2022-12-07T10:51:17;20.00;57.30
24144;DHT22;12307;50.828;6.080;2022-12-07T10:53:52;20.00;57.20
24144;DHT22;12307;50.828;6.080;2022-12-07T10:56:30;20.10;56.80
24144;DHT22;12307;50.828;6.080;2022-12-07T10:59:18;20.20;56.60
24144;DHT22;12307;50.828;6.080;2022-12-07T11:01:49;20.20;56.40
24144;DHT22;12307;50.828;6.080;2022-12-07T11:04:24;20.20;56.30
24144;DHT22;12307;50.828;6.080;2022-12-07T11:06:58;20.20;56.30
24144;DHT22;12307;50.828;6.080;2022-12-07T11:09:47;20.20;56.30
24144;DHT22;12307;50.828;6.080;2022-12-07T11:12:24;20.20;56.30
24144;DHT22;12307;50.828;6.080;2022-12-07T11:14:57;20.20;56.30
24144;DHT22;12307;50.828;6.080;2022-12-07T11:17:29;20.20;56.30
24144;DHT22;12307;50.828;6.080;2022-12-07T11:20:04;20.20;56.20
24144;DHT22;12307;50.828;6.080;2022-12-07T11:22:42;20.20;56.30
24144;DHT22;12307;50.828;6.080;2022-12-07T11:25:19;20.20;56.30
24144;DHT22;12307;50.828;6.080;2022-12-07T11:28:00;20.20;56.30
24144;DHT22;12307;50.828;6.080;2022-12-07T11:30:32;20.20;56.30
24144;DHT22;12307;50.828;6.080;2022-12-07T11:33:10;20.20;56.30
24144;DHT22;12307;50.828;6.080;2022-12-07T11:35:45;20.20;56.20
24144;DHT22;12307;50.828;6.080;2022-12-07T11:38:15;20.30;56.10
24144;DHT22;12307;50.828;6.080;2022-12-07T11:40:44;20.40;55.90
24144;DHT22;12307;50.828;6.080;2022-12-07T11:43:18;20.50;55.80
24144;DHT22;12307;50.828;6.080;2022-12-07T11:45:47;20.60;55.70
24144;DHT22;12307;50.828;6.080;2022-12-07T11:48:19;20.70;55.50
24144;DHT22;12307;50.828;6.080;2022-12-07T11:50:48;20.80;55.20
24144;DHT22;12307;50.828;6.080;2022-12-07T11:53:19;20.90;55.00
24144;DHT22;12307;50.828;6.080;2022-12-07T11:55:50;20.90;54.90
24144;DHT22;12307;50.828;6.080;2022-12-07T11:58:34;21.00;54.80
24144;DHT22;12307;50.828;6.080;2022-12-07T12:01:13;21.10;54.60
24144;DHT22;12307;50.828;6.080;2022-12-07T12:03:45;21.10;54.40
24144;DHT22;12307;50.828;6.080;2022-12-07T12:06:12;21.10;54.40
24144;DHT22;12307;50.828;6.080;2022-12-07T12:08:42;21.10;54.40
24144;DHT22;12307;50.828;6.080;2022-12-07T12:11:19;21.10;54.50
24144;DHT22;12307;50.828;6.080;2022-12-07T12:14:17;21.00;54.70
24144;DHT22;12307;50.828;6.080;2022-12-07T12:17:11;21.00;54.80
24144;DHT22;12307;50.828;6.080;2022-12-07T12:19:42;21.00;54.80
24144;DHT22;12307;50.828;6.080;2022-12-07T12:22:16;21.00;54.60
24144;DHT22;12307;50.828;6.080;2022-12-07T12:24:44;21.10;54.50
24144;DHT22;12307;50.828;6.080;2022-12-07T12:27:19;21.20;54.40
24144;DHT22;12307;50.828;6.080;2022-12-07T12:29:52;21.20;54.90
24144;DHT22;12307;50.828;6.080;2022-12-07T12:32:21;21.20;54.10
24144;DHT22;12307;50.828;6.080;2022-12-07T12:37:45;21.30;54.10
24144;DHT22;12307;50.828;6.080;2022-12-07T12:40:43;21.30;54.10
24144;DHT22;12307;50.828;6.080;2022-12-07T12:43:45;21.20;54.10
24144;DHT22;12307;50.828;6.080;2022-12-07T12:49:40;21.20;54.50
24144;DHT22;12307;50.828;6.080;2022-12-07T12:55:15;21.10;55.00
24144;DHT22;12307;50.828;6.080;2022-12-07T12:57:48;21.10;55.20
24144;DHT22;12307;50.828;6.080;2022-12-07T13:00:34;21.10;55.40
24144;DHT22;12307;50.828;6.080;2022-12-07T13:03:00;21.00;55.60
24144;DHT22;12307;50.828;6.080;2022-12-07T13:05:29;21.00;55.70
24144;DHT22;12307;50.828;6.080;2022-12-07T13:08:00;20.90;55.90
24144;DHT22;12307;50.828;6.080;2022-12-07T13:10:39;20.90;56.10
24144;DHT22;12307;50.828;6.080;2022-12-07T13:13:30;20.90;56.20
24144;DHT22;12307;50.828;6.080;2022-12-07T13:18:55;20.70;56.60
24144;DHT22;12307;50.828;6.080;2022-12-07T13:21:40;20.70;56.80
24144;DHT22;12307;50.828;6.080;2022-12-07T13:24:07;20.70;56.90
24144;DHT22;12307;50.828;6.080;2022-12-07T13:26:36;20.70;57.10
24144;DHT22;12307;50.828;6.080;2022-12-07T13:29:11;20.70;57.20
24144;DHT22;12307;50.828;6.080;2022-12-07T13:31:39;20.70;57.30
24144;DHT22;12307;50.828;6.080;2022-12-07T13:34:30;20.60;57.30
24144;DHT22;12307;50.828;6.080;2022-12-07T13:36:56;20.60;57.30
24144;DHT22;12307;50.828;6.080;2022-12-07T13:39:23;20.60;57.40
24144;DHT22;12307;50.828;6.080;2022-12-07T13:41:51;20.60;57.50
24144;DHT22;12307;50.828;6.080;2022-12-07T13:44:19;20.60;57.50
24144;DHT22;12307;50.828;6.080;2022-12-07T13:46:51;20.60;57.60
24144;DHT22;12307;50.828;6.080;2022-12-07T13:49:21;20.50;57.50
24144;DHT22;12307;50.828;6.080;2022-12-07T13:51:48;20.50;57.50
24144;DHT22;12307;50.828;6.080;2022-12-07T13:54:14;20.50;57.70
24144;DHT22;12307;50.828;6.080;2022-12-07T13:56:40;20.50;57.70
24144;DHT22;12307;50.828;6.080;2022-12-07T13:59:13;20.50;57.70
24144;DHT22;12307;50.828;6.080;2022-12-07T14:01:41;20.50;57.80
24144;DHT22;12307;50.828;6.080;2022-12-07T14:04:30;20.40;57.80
24144;DHT22;12307;50.828;6.080;2022-12-07T14:06:56;20.40;57.80
24144;DHT22;12307;50.828;6.080;2022-12-07T14:09:23;20.40;57.70
24144;DHT22;12307;50.828;6.080;2022-12-07T14:11:50;20.30;57.70
24144;DHT22;12307;50.828;6.080;2022-12-07T14:14:19;20.30;57.60
24144;DHT22;12307;50.828;6.080;2022-12-07T14:16:57;20.30;57.70
24144;DHT22;12307;50.828;6.080;2022-12-07T14:19:49;20.30;57.70
24144;DHT22;12307;50.828;6.080;2022-12-07T14:22:30;20.30;57.70
24144;DHT22;12307;50.828;6.080;2022-12-07T14:25:16;20.20;57.60
24144;DHT22;12307;50.828;6.080;2022-12-07T14:27:50;20.20;57.70
24144;DHT22;12307;50.828;6.080;2022-12-07T14:30:17;20.20;57.70
24144;DHT22;12307;50.828;6.080;2022-12-07T14:32:44;20.20;57.70
24144;DHT22;12307;50.828;6.080;2022-12-07T14:35:15;20.20;57.60
24144;DHT22;12307;50.828;6.080;2022-12-07T14:37:42;20.20;57.60
24144;DHT22;12307;50.828;6.080;2022-12-07T14:40:13;20.20;57.60
24144;DHT22;12307;50.828;6.080;2022-12-07T14:42:39;20.20;57.60
24144;DHT22;12307;50.828;6.080;2022-12-07T14:45:10;20.10;57.50
24144;DHT22;12307;50.828;6.080;2022-12-07T14:47:38;20.10;57.50
24144;DHT22;12307;50.828;6.080;2022-12-07T14:50:06;20.10;57.40
24144;DHT22;12307;50.828;6.080;2022-12-07T14:52:33;20.10;57.40
24144;DHT22;12307;50.828;6.080;2022-12-07T14:54:58;20.10;57.50
24144;DHT22;12307;50.828;6.080;2022-12-07T14:57:24;20.10;57.40
24144;DHT22;12307;50.828;6.080;2022-12-07T14:59:50;20.10;57.40
24144;DHT22;12307;50.828;6.080;2022-12-07T15:02:15;20.10;57.40
24144;DHT22;12307;50.828;6.080;2022-12-07T15:04:41;20.10;57.50
24144;DHT22;12307;50.828;6.080;2022-12-07T15:07:14;20.00;57.40
24144;DHT22;12307;50.828;6.080;2022-12-07T15:09:42;20.00;57.30
24144;DHT22;12307;50.828;6.080;2022-12-07T15:12:08;20.00;57.20
24144;DHT22;12307;50.828;6.080;2022-12-07T15:14:34;20.00;57.30
24144;DHT22;12307;50.828;6.080;2022-12-07T15:16:59;20.00;57.30
24144;DHT22;12307;50.828;6.080;2022-12-07T15:19:25;20.00;57.30
24144;DHT22;12307;50.828;6.080;2022-12-07T15:21:51;20.00;57.40
24144;DHT22;12307;50.828;6.080;2022-12-07T15:24:19;20.00;57.30
24144;DHT22;12307;50.828;6.080;2022-12-07T15:26:45;19.90;57.30
24144;DHT22;12307;50.828;6.080;2022-12-07T15:29:11;19.90;57.20
24144;DHT22;12307;50.828;6.080;2022-12-07T15:31:37;19.90;57.20
24144;DHT22;12307;50.828;6.080;2022-12-07T15:34:04;19.90;57.40
24144;DHT22;12307;50.828;6.080;2022-12-07T15:36:31;19.90;57.20
24144;DHT22;12307;50.828;6.080;2022-12-07T15:38:57;19.90;57.20
24144;DHT22;12307;50.828;6.080;2022-12-07T15:41:24;19.90;57.10
24144;DHT22;12307;50.828;6.080;2022-12-07T15:43:50;19.90;57.90
24144;DHT22;12307;50.828;6.080;2022-12-07T15:46:36;19.90;57.20
24144;DHT22;12307;50.828;6.080;2022-12-07T15:49:03;19.90;57.20
24144;DHT22;12307;50.828;6.080;2022-12-07T15:51:29;19.90;57.20
24144;DHT22;12307;50.828;6.080;2022-12-07T15:53:55;19.90;57.20
24144;DHT22;12307;50.828;6.080;2022-12-07T15:56:23;19.90;57.10